< < Back
Terminal Aerodrome Forecast


Current Version              Previous Versions:   1  2  3  4  5  6  7  8  9  

Terminal Aerodrome Forecast

801
FTUS42 KGSP 181700
TAFAND
TAF
KAND 181736Z 1818/1918 04010KT P6SM OVC080
     FM182000 05012G20KT P6SM -RA OVC020
     FM190300 05018G29KT 5SM RA BR OVC008
     FM191300 05017G26KT P6SM -RA OVC016=

Latest METAR

876
SAUS70 KWBC 182300 RRC
MTRAND
METAR KAND 182256Z AUTO 04007G17KT 9SM -RA OVC095 10/08 A3019 RMK AO2
SLP222 P0008 T01000083


USA.gov is the U.S. government's official web portal to all federal, state and local government web resources and services.